Time;durP1;ratioP1;P1;durP2;ratioP2;P2;SDS_P1;SDS_P2;PMS_P1;PMS_P2;Temp;Humidity;BMP_temperature;BMP_pressure;BME280_temperature;BME280_humidity;BME280_pressure;Samples;Min_cycle;Max_cycle;Signal;HPM_P1;HPM_P2
2023/05/12 00:00:55;;;;;;;;;;;;;;;7.72;42.15;97090.91;6294641;28;19921;-75
2023/05/12 00:03:59;;;;;;;;;;;;;;;7.79;41.94;97102.78;6295472;28;20190;-74
2023/05/12 00:07:04;;;;;;;;;;;;;;;7.85;42.12;97107.72;6295417;28;20381;-74
2023/05/12 00:10:06;;;;;;;;;;;;;;;7.93;43.79;97109.97;6295117;28;19927;-74
2023/05/12 00:13:09;;;;;;;;;;;;;;;8.01;41.99;97119.13;6295211;28;19924;-75
2023/05/12 00:16:14;;;;;;;;;;;;;;;8.05;41.85;97125.91;6294635;28;20431;-74
2023/05/12 00:19:15;;;;;;;;;;;;;;;8.09;41.43;97137.06;6294602;28;19935;-74
2023/05/12 00:22:18;;;;;;;;;;;;;;;8.10;42.90;97134.38;6293978;28;19944;-75
2023/05/12 00:25:24;;;;;;;;;;;;;;;8.13;41.81;97148.25;6295003;28;20350;-75
2023/05/12 00:28:27;;;;;;;;;;;;;;;8.16;43.20;97153.34;6295249;28;19920;-74
2023/05/12 00:31:30;;;;;;;;;;;;;;;8.19;42.86;97166.28;6295157;28;19920;-74
2023/05/12 00:34:32;;;;;;;;;;;;;;;8.21;42.26;97173.16;6294588;28;20022;-74
2023/05/12 00:37:33;;;;;;;;;;;;;;;8.25;41.15;97179.09;6294099;28;19927;-75
2023/05/12 00:40:36;;;;;;;;;;;;;;;8.23;41.46;97183.53;6294313;28;19921;-74
2023/05/12 00:43:39;;;;;;;;;;;;;;;8.22;41.95;97182.69;6277032;28;20414;-74
2023/05/12 00:46:45;;;;;;;;;;;;;;;8.23;41.64;97186.16;6295040;28;20374;-75
2023/05/12 00:49:51;;;;;;;;;;;;;;;8.28;41.82;97194.66;6294988;28;19920;-74
2023/05/12 00:52:52;;;;;;;;;;;;;;;8.30;42.64;97195.44;6294681;28;20425;-75
2023/05/12 00:55:54;;;;;;;;;;;;;;;8.35;41.59;97200.44;6294403;28;19928;-74
2023/05/12 00:58:57;;;;;;;;;;;;;;;8.39;41.07;97207.25;6294784;28;19924;-74
2023/05/12 01:02:01;;;;;;;;;;;;;;;8.39;41.12;97215.97;6294089;28;19920;-75
2023/05/12 01:05:02;;;;;;;;;;;;;;;8.37;41.32;97215.16;6294825;28;19920;-74
2023/05/12 01:08:05;;;;;;;;;;;;;;;8.32;41.62;97217.16;6296821;28;20511;-74
2023/05/12 01:11:11;;;;;;;;;;;;;;;8.28;41.37;97215.63;6299281;28;20007;-74
2023/05/12 01:14:15;;;;;;;;;;;;;;;8.24;41.56;97221.97;6281121;28;19920;-74
2023/05/12 01:17:18;;;;;;;;;;;;;;;8.23;42.01;97215.00;6299088;28;19927;-73
2023/05/12 01:20:20;;;;;;;;;;;;;;;8.26;42.39;97217.47;6298310;28;20487;-74
2023/05/12 01:23:30;;;;;;;;;;;;;;;8.26;42.55;97214.84;6299250;28;19920;-74
2023/05/12 01:26:32;;;;;;;;;;;;;;;8.24;42.30;97225.44;6299139;28;19921;-73
2023/05/12 01:29:34;;;;;;;;;;;;;;;8.24;41.77;97224.59;6298262;28;19935;-73
2023/05/12 01:32:38;;;;;;;;;;;;;;;8.25;42.46;97221.03;6298066;28;19920;-75
2023/05/12 01:35:41;;;;;;;;;;;;;;;8.26;42.65;97217.47;6298895;28;19928;-74
2023/05/12 01:38:42;;;;;;;;;;;;;;;8.29;42.19;97222.56;6298772;28;20487;-74
2023/05/12 01:41:46;;;;;;;;;;;;;;;8.30;42.36;97219.88;6299026;28;19920;-74
2023/05/12 01:44:49;;;;;;;;;;;;;;;8.33;43.17;97208.38;6298161;28;19916;-74
2023/05/12 01:47:51;;;;;;;;;;;;;;;8.41;41.98;97208.03;6297862;28;19966;-74
2023/05/12 01:50:54;;;;;;;;;;;;;;;8.43;40.96;97201.75;6298371;28;19921;-74
2023/05/12 01:53:58;;;;;;;;;;;;;;;8.53;41.26;97207.41;6298656;28;19920;-73
2023/05/12 01:56:58;;;;;;;;;;;;;;;8.58;42.09;97187.03;6297333;28;19927;-75
2023/05/12 02:00:00;;;;;;;;;;;;;;;8.70;41.75;97196.88;6297104;28;20308;-75
2023/05/12 02:03:01;;;;;;;;;;;;;;;8.81;41.24;97182.38;6297202;28;19939;-75
2023/05/12 02:06:02;;;;;;;;;;;;;;;8.84;41.62;97171.69;6279802;28;19920;-73
2023/05/12 02:09:06;;;;;;;;;;;;;;;8.87;41.24;97177.63;6296826;28;20003;-74
2023/05/12 02:12:07;;;;;;;;;;;;;;;8.89;41.52;97164.41;6296468;28;19927;-74
2023/05/12 02:15:08;;;;;;;;;;;;;;;8.96;41.53;97173.66;6297146;28;19935;-75
2023/05/12 02:18:09;;;;;;;;;;;;;;;9.07;40.96;97167.84;6296621;28;20400;-74
2023/05/12 02:21:11;;;;;;;;;;;;;;;9.18;41.00;97166.31;6296107;28;19920;-75
2023/05/12 02:24:15;;;;;;;;;;;;;;;9.41;40.56;97169.47;6297327;28;19939;-75
2023/05/12 02:27:19;;;;;;;;;;;;;;;9.64;40.06;97157.66;6297830;28;20379;-75
2023/05/12 02:30:23;;;;;;;;;;;;;;;9.81;40.03;97162.81;6296995;28;20305;-75
2023/05/12 02:33:26;;;;;;;;;;;;;;;9.98;39.71;97153.09;6297504;28;19924;-74
2023/05/12 02:36:28;;;;;;;;;;;;;;;10.24;39.32;97141.91;6296992;28;19924;-75
2023/05/12 02:39:31;;;;;;;;;;;;;;;10.57;39.66;97140.88;6296510;28;19955;-75
2023/05/12 02:42:37;;;;;;;;;;;;;;;10.84;38.45;97140.09;6296920;28;19920;-74
2023/05/12 02:45:40;;;;;;;;;;;;;;;10.97;38.83;97133.16;6295921;28;19924;-75
2023/05/12 02:48:46;;;;;;;;;;;;;;;10.97;38.82;97133.16;6296698;28;19920;-75
2023/05/12 02:51:47;;;;;;;;;;;;;;;10.93;38.84;97129.03;6296159;28;19981;-74
2023/05/12 02:54:49;;;;;;;;;;;;;;;10.75;39.55;97131.84;6296104;28;19924;-74
2023/05/12 02:57:56;;;;;;;;;;;;;;;10.72;38.83;97141.72;6296929;28;19920;-75
2023/05/12 03:01:00;;;;;;;;;;;;;;;10.71;39.43;97150.56;6296800;28;19920;-74
2023/05/12 03:04:04;;;;;;;;;;;;;;;10.77;39.19;97161.53;6297049;28;20313;-74
2023/05/12 03:07:06;;;;;;;;;;;;;;;10.87;39.02;97163.59;6277376;28;19920;-75
2023/05/12 03:10:08;;;;;;;;;;;;;;;10.94;38.79;97151.78;6295431;28;20310;-74
2023/05/12 03:13:12;;;;;;;;;;;;;;;11.01;38.82;97138.16;6295748;28;19928;-75
2023/05/12 03:16:13;;;;;;;;;;;;;;;11.12;38.59;97149.78;6295554;28;19999;-75
2023/05/12 03:19:17;;;;;;;;;;;;;;;11.22;38.39;97156.16;6296255;28;19920;-75
2023/05/12 03:22:22;;;;;;;;;;;;;;;11.42;38.60;97175.97;6296336;28;19920;-75
2023/05/12 03:25:26;;;;;;;;;;;;;;;11.32;38.84;97172.22;6295447;28;20015;-75
2023/05/12 03:28:29;;;;;;;;;;;;;;;11.40;39.25;97169.97;6295962;28;19920;-75
2023/05/12 03:31:32;;;;;;;;;;;;;;;11.56;38.74;97175.94;6294665;28;20018;-74
2023/05/12 03:34:33;;;;;;;;;;;;;;;11.69;38.52;97184.78;6294907;28;19920;-74
2023/05/12 03:37:37;;;;;;;;;;;;;;;11.74;38.27;97189.72;6294784;28;19927;-74
2023/05/12 03:40:44;;;;;;;;;;;;;;;11.72;38.52;97181.09;6295716;28;19916;-75
2023/05/12 03:43:47;;;;;;;;;;;;;;;11.95;37.88;97190.19;6295709;28;19924;-75
2023/05/12 03:46:48;;;;;;;;;;;;;;;11.68;37.75;97180.44;6295015;28;19916;-75
2023/05/12 03:50:03;;;;;;;;;;;;;;;11.83;37.72;97167.19;6295090;28;19942;-75
2023/05/12 03:53:07;;;;;;;;;;;;;;;11.91;38.02;97172.84;6277218;28;19920;-74
2023/05/12 03:56:14;;;;;;;;;;;;;;;11.96;37.82;97181.31;6295228;28;19920;-75
2023/05/12 03:59:15;;;;;;;;;;;;;;;12.02;37.67;97170.34;6295285;28;19926;-75
2023/05/12 04:02:19;;;;;;;;;;;;;;;12.06;38.00;97163.09;6295135;28;20279;-75
2023/05/12 04:05:20;;;;;;;;;;;;;;;12.08;37.78;97156.75;6294211;28;20302;-74
2023/05/12 04:08:23;;;;;;;;;;;;;;;12.20;37.81;97151.59;6295137;28;20313;-74
2023/05/12 04:11:24;;;;;;;;;;;;;;;12.41;37.60;97121.16;6294158;28;19927;-75
2023/05/12 04:14:27;;;;;;;;;;;;;;;12.62;37.09;97118.81;6294712;28;19924;-74
2023/05/12 04:17:31;;;;;;;;;;;;;;;12.72;36.89;97117.25;6295084;28;19920;-74
2023/05/12 04:20:34;;;;;;;;;;;;;;;12.70;36.73;97116.50;6294957;28;20309;-74
2023/05/12 04:23:35;;;;;;;;;;;;;;;12.63;36.95;97109.13;6294099;28;19927;-75
2023/05/12 04:26:52;;;;;;;;;;;;;;;12.67;37.16;97094.75;6294902;28;20291;-75
2023/05/12 04:29:55;;;;;;;;;;;;;;;12.55;37.26;97097.28;6294900;28;19920;-75
2023/05/12 04:32:58;;;;;;;;;;;;;;;12.50;37.13;97104.69;6293098;28;19920;-74
2023/05/12 04:36:00;;;;;;;;;;;;;;;12.48;37.23;97109.22;6294663;28;20072;-75
2023/05/12 04:39:04;;;;;;;;;;;;;;;12.40;37.63;97103.63;6293705;28;19920;-74
2023/05/12 04:42:05;;;;;;;;;;;;;;;12.34;37.40;97104.03;6293543;28;19920;-74
2023/05/12 04:45:09;;;;;;;;;;;;;;;12.19;37.71;97105.09;6293948;28;19920;-76
2023/05/12 04:48:10;;;;;;;;;;;;;;;12.17;37.73;97101.69;6294595;28;19920;-75
2023/05/12 04:51:13;;;;;;;;;;;;;;;12.26;37.96;97101.09;6294894;28;19920;-74
2023/05/12 04:54:14;;;;;;;;;;;;;;;12.41;37.32;97100.03;6294549;28;20011;-74
2023/05/12 04:57:20;;;;;;;;;;;;;;;12.62;36.93;97096.84;6294716;28;19924;-74
2023/05/12 05:00:21;;;;;;;;;;;;;;;12.85;36.09;97082.91;6276062;28;19963;-74
2023/05/12 05:03:22;;;;;;;;;;;;;;;13.22;35.92;97064.44;6293410;28;19928;-73
2023/05/12 05:06:23;;;;;;;;;;;;;;;13.81;35.27;97059.19;6293549;28;20377;-74
2023/05/12 05:09:26;;;;;;;;;;;;;;;14.25;34.65;97057.63;6294367;28;19921;-74
2023/05/12 05:12:30;;;;;;;;;;;;;;;14.72;34.18;97063.72;6294294;28;19916;-74
2023/05/12 05:15:36;;;;;;;;;;;;;;;15.39;33.12;97065.44;6294156;28;20453;-75
2023/05/12 05:18:44;;;;;;;;;;;;;;;16.09;32.16;97053.47;6294342;28;20336;-74
2023/05/12 05:21:49;;;;;;;;;;;;;;;16.80;31.27;97048.31;6294384;28;19920;-73
2023/05/12 05:24:52;;;;;;;;;;;;;;;17.16;30.93;97061.16;6294192;28;20420;-75
2023/05/12 05:27:57;;;;;;;;;;;;;;;17.17;30.83;97054.84;6294227;28;19920;-74
2023/05/12 05:30:59;;;;;;;;;;;;;;;16.91;31.30;97049.19;6294253;28;19916;-75
2023/05/12 05:34:00;;;;;;;;;;;;;;;16.61;31.27;97051.66;6293191;28;20424;-74
2023/05/12 05:37:03;;;;;;;;;;;;;;;16.36;31.48;97041.47;6276703;28;20062;-75
2023/05/12 05:40:05;;;;;;;;;;;;;;;16.32;31.30;97046.22;6292911;28;19921;-74
2023/05/12 05:43:08;;;;;;;;;;;;;;;16.41;31.07;97044.59;6275684;28;19927;-74
2023/05/12 05:46:10;;;;;;;;;;;;;;;16.63;30.13;97042.75;6293935;28;19920;-75
2023/05/12 05:49:13;;;;;;;;;;;;;;;17.03;29.46;97040.97;6293701;28;19920;-73
2023/05/12 05:52:17;;;;;;;;;;;;;;;17.24;28.49;97032.06;6293588;28;20394;-75
2023/05/12 05:55:18;;;;;;;;;;;;;;;17.18;28.25;97033.47;6296525;28;19931;-74
2023/05/12 05:58:23;;;;;;;;;;;;;;;17.03;28.41;97022.34;6297385;28;19927;-74
2023/05/12 06:01:26;;;;;;;;;;;;;;;16.99;28.64;97018.28;6298089;28;20037;-75
2023/05/12 06:04:27;;;;;;;;;;;;;;;16.99;28.66;97007.66;6297879;28;19932;-75
2023/05/12 06:07:30;;;;;;;;;;;;;;;16.97;28.30;97009.59;6298299;28;19927;-75
2023/05/12 06:10:34;;;;;;;;;;;;;;;16.82;27.51;97003.00;6297936;28;19920;-75
2023/05/12 06:13:38;;;;;;;;;;;;;;;16.34;28.47;96995.66;6297670;28;19920;-73
2023/05/12 06:16:45;;;;;;;;;;;;;;;16.20;28.46;96999.47;6297599;28;19927;-75
2023/05/12 06:19:48;;;;;;;;;;;;;;;16.15;28.42;96985.75;6297666;28;19943;-74
2023/05/12 06:22:53;;;;;;;;;;;;;;;16.23;28.41;96971.84;6297977;28;19920;-74
2023/05/12 06:25:56;;;;;;;;;;;;;;;16.45;28.10;96971.66;6297687;28;19920;-74
2023/05/12 06:29:00;;;;;;;;;;;;;;;16.79;27.60;96980.19;6297365;28;19954;-74
2023/05/12 06:32:06;;;;;;;;;;;;;;;17.33;27.45;96988.69;6297095;28;20382;-74
2023/05/12 06:35:11;;;;;;;;;;;;;;;17.82;26.76;96978.91;6297143;28;20332;-76
2023/05/12 06:38:12;;;;;;;;;;;;;;;18.18;25.97;96969.31;6297400;28;20020;-75
2023/05/12 06:41:13;;;;;;;;;;;;;;;18.12;25.82;96975.22;6279064;28;20098;-75
2023/05/12 06:44:14;;;;;;;;;;;;;;;17.98;26.32;96966.84;6295934;28;19989;-74
2023/05/12 06:47:20;;;;;;;;;;;;;;;18.07;26.23;96955.31;6296963;28;19925;-75
2023/05/12 06:50:21;;;;;;;;;;;;;;;18.12;26.19;96959.25;6296433;28;19927;-75
2023/05/12 06:53:25;;;;;;;;;;;;;;;18.02;26.08;96963.72;6297077;28;19960;-74
2023/05/12 06:56:28;;;;;;;;;;;;;;;17.66;26.71;96959.97;6296058;28;20210;-75
2023/05/12 06:59:31;;;;;;;;;;;;;;;17.50;26.91;96958.72;6296767;28;20316;-75
2023/05/12 07:02:32;;;;;;;;;;;;;;;17.53;26.74;96967.41;6278720;28;20005;-75
2023/05/12 07:05:38;;;;;;;;;;;;;;;17.61;26.62;96960.41;6296095;28;19928;-75
2023/05/12 07:08:41;;;;;;;;;;;;;;;17.75;26.45;96964.47;6277921;28;19931;-75
2023/05/12 07:11:43;;;;;;;;;;;;;;;18.07;26.14;96965.97;6296403;28;20385;-74
2023/05/12 07:14:51;;;;;;;;;;;;;;;18.25;26.09;96969.56;6295456;28;20385;-74
2023/05/12 07:17:56;;;;;;;;;;;;;;;18.05;26.23;96963.44;6296301;28;19920;-74
2023/05/12 07:20:58;;;;;;;;;;;;;;;17.74;26.75;96970.75;6295908;28;19927;-74
2023/05/12 07:24:01;;;;;;;;;;;;;;;17.28;27.29;96972.31;6296171;28;19920;-74
2023/05/12 07:27:03;;;;;;;;;;;;;;;16.78;27.99;96967.03;6295519;28;19920;-74
2023/05/12 07:30:12;;;;;;;;;;;;;;;16.34;28.60;96969.09;6295790;28;19920;-76
2023/05/12 07:33:16;;;;;;;;;;;;;;;15.78;29.21;96959.69;6295228;28;19927;-76
2023/05/12 07:36:19;;;;;;;;;;;;;;;15.37;29.84;96973.72;6295733;28;20381;-74
2023/05/12 07:39:22;;;;;;;;;;;;;;;14.99;30.17;96967.09;6295360;28;20297;-76
2023/05/12 07:42:26;;;;;;;;;;;;;;;15.12;30.78;96970.44;6295592;28;19920;-74
2023/05/12 07:45:32;;;;;;;;;;;;;;;15.10;31.40;96966.25;6295657;28;20386;-75
2023/05/12 07:48:38;;;;;;;;;;;;;;;14.89;31.80;96960.84;6295789;28;19920;-75
2023/05/12 07:51:39;;;;;;;;;;;;;;;14.98;32.14;96946.88;6294490;28;19928;-75
2023/05/12 07:54:43;;;;;;;;;;;;;;;15.32;32.30;96970.63;6293943;28;19927;-75
2023/05/12 07:57:44;;;;;;;;;;;;;;;14.91;32.67;96967.72;6294008;28;19927;-75
2023/05/12 08:00:48;;;;;;;;;;;;;;;14.50;32.85;96973.66;6294790;28;19924;-75
2023/05/12 08:03:50;;;;;;;;;;;;;;;14.54;33.33;96975.97;6293719;28;19920;-74
2023/05/12 08:06:51;;;;;;;;;;;;;;;14.00;34.14;96967.84;6293964;28;20010;-75
2023/05/12 08:09:55;;;;;;;;;;;;;;;13.67;34.76;96978.25;6294798;28;19927;-75
2023/05/12 08:12:56;;;;;;;;;;;;;;;13.75;35.04;96968.88;6294754;28;19921;-75
2023/05/12 08:16:00;;;;;;;;;;;;;;;13.81;34.90;96947.25;6294253;28;19920;-74
2023/05/12 08:19:04;;;;;;;;;;;;;;;13.68;35.26;96935.00;6294835;28;19955;-75
2023/05/12 08:22:07;;;;;;;;;;;;;;;13.66;34.82;96941.34;6294919;28;19917;-75
2023/05/12 08:25:08;;;;;;;;;;;;;;;13.62;34.54;96926.69;6294255;28;20439;-75
2023/05/12 08:28:11;;;;;;;;;;;;;;;13.74;34.29;96916.97;6294666;28;20393;-75
2023/05/12 08:31:12;;;;;;;;;;;;;;;13.80;33.84;96912.03;6293977;28;19960;-75
2023/05/12 08:34:18;;;;;;;;;;;;;;;14.02;33.53;96911.22;6276882;28;19967;-75
2023/05/12 08:37:21;;;;;;;;;;;;;;;14.31;32.95;96922.16;6293955;28;19928;-74
2023/05/12 08:40:30;;;;;;;;;;;;;;;14.73;32.48;96914.44;6293976;28;20313;-75
2023/05/12 08:43:40;;;;;;;;;;;;;;;15.08;32.08;96913.34;6277512;28;19921;-75
2023/05/12 08:46:42;;;;;;;;;;;;;;;15.36;31.66;96925.16;6294620;28;19920;-75
2023/05/12 08:49:48;;;;;;;;;;;;;;;15.43;31.73;96930.81;6294629;28;19926;-74
2023/05/12 08:52:52;;;;;;;;;;;;;;;15.36;31.79;96934.94;6294539;28;20313;-75
2023/05/12 08:55:55;;;;;;;;;;;;;;;15.17;32.07;96936.47;6294470;28;19920;-75
2023/05/12 08:58:59;;;;;;;;;;;;;;;15.04;32.18;96935.78;6293954;28;20412;-76
2023/05/12 09:02:04;;;;;;;;;;;;;;;14.88;32.38;96945.94;6294547;28;19921;-75
2023/05/12 09:05:08;;;;;;;;;;;;;;;14.69;32.51;96935.97;6294253;28;19924;-74
2023/05/12 09:08:12;;;;;;;;;;;;;;;14.62;32.43;96940.94;6294346;28;20374;-76
2023/05/12 09:11:18;;;;;;;;;;;;;;;14.53;32.16;96946.97;6294489;28;19921;-75
2023/05/12 09:14:24;;;;;;;;;;;;;;;14.14;32.57;96962.34;6293446;28;19943;-75
2023/05/12 09:17:27;;;;;;;;;;;;;;;14.45;32.73;96965.22;6294470;28;19920;-75
2023/05/12 09:20:29;;;;;;;;;;;;;;;13.81;34.86;96955.19;6293991;28;19943;-75
2023/05/12 09:23:30;;;;;;;;;;;;;;;12.84;36.51;96969.44;6293370;28;19924;-76
2023/05/12 09:26:42;;;;;;;;;;;;;;;12.35;40.25;96950.06;6294167;28;20389;-73
2023/05/12 09:29:48;;;;;;;;;;;;;;;11.57;43.05;96945.72;6297932;28;19927;-73
2023/05/12 09:32:52;;;;;;;;;;;;;;;11.12;44.80;96928.56;6297926;28;20058;-73
2023/05/12 09:35:58;;;;;;;;;;;;;;;10.89;44.84;96893.22;6298650;28;19920;-74
2023/05/12 09:39:03;;;;;;;;;;;;;;;11.05;45.28;96891.28;6297630;28;19920;-73
2023/05/12 09:42:09;;;;;;;;;;;;;;;11.08;44.24;96879.69;6298339;28;20289;-74
2023/05/12 09:45:12;;;;;;;;;;;;;;;11.34;43.81;96875.28;6297511;28;19920;-75
2023/05/12 09:48:18;;;;;;;;;;;;;;;11.41;44.84;96879.22;6298330;28;19920;-73
2023/05/12 09:51:22;;;;;;;;;;;;;;;11.29;45.80;96866.84;6298494;28;19916;-75
2023/05/12 09:54:27;;;;;;;;;;;;;;;11.29;45.20;96857.16;6297852;28;19927;-74
2023/05/12 09:57:30;;;;;;;;;;;;;;;11.31;46.03;96854.44;6298426;28;20066;-75
2023/05/12 10:00:40;;;;;;;;;;;;;;;11.08;48.56;96864.72;6298275;28;19920;-75
2023/05/12 10:03:42;;;;;;;;;;;;;;;10.77;51.33;96853.59;6297247;28;19927;-74
2023/05/12 10:06:46;;;;;;;;;;;;;;;10.41;51.50;96858.63;6297858;28;19920;-73
2023/05/12 10:09:47;;;;;;;;;;;;;;;10.51;51.47;96859.72;6297190;28;19935;-74
2023/05/12 10:12:53;;;;;;;;;;;;;;;10.58;50.77;96871.53;6297993;28;19927;-74
2023/05/12 10:15:57;;;;;;;;;;;;;;;10.79;52.36;96859.63;6296671;28;20378;-74
2023/05/12 10:18:58;;;;;;;;;;;;;;;10.72;52.70;96857.47;6297146;28;19924;-73
2023/05/12 10:22:02;;;;;;;;;;;;;;;10.72;53.09;96860.94;6296747;28;20404;-74
2023/05/12 10:25:07;;;;;;;;;;;;;;;10.64;53.15;96855.34;6297358;28;19920;-74
2023/05/12 10:28:11;;;;;;;;;;;;;;;10.68;52.60;96843.69;6296816;28;19926;-75
2023/05/12 10:31:14;;;;;;;;;;;;;;;10.79;53.03;96833.28;6296881;28;19963;-74
2023/05/12 10:34:17;;;;;;;;;;;;;;;10.97;53.04;96819.84;6297457;28;19920;-74
2023/05/12 10:37:22;;;;;;;;;;;;;;;10.98;53.70;96826.78;6297354;28;20382;-74
2023/05/12 10:40:27;;;;;;;;;;;;;;;10.95;53.59;96832.25;6296111;28;19920;-74
2023/05/12 10:43:41;;;;;;;;;;;;;;;11.01;52.99;96826.56;6297100;28;19920;-74
2023/05/12 10:47:03;;;;;;;;;;;;;;;11.13;52.67;96823.13;6296625;28;19920;-74
2023/05/12 10:50:12;;;;;;;;;;;;;;;11.31;53.31;96817.56;6297075;28;20018;-74
2023/05/12 10:53:14;;;;;;;;;;;;;;;11.37;52.57;96812.69;6296187;28;20012;-75
2023/05/12 10:56:21;;;;;;;;;;;;;;;11.45;52.41;96828.81;6295759;28;19920;-75
2023/05/12 10:59:27;;;;;;;;;;;;;;;11.48;52.98;96840.09;6296433;28;19920;-75
2023/05/12 11:02:32;;;;;;;;;;;;;;;11.44;52.92;96842.13;6296716;28;19921;-75
2023/05/12 11:05:39;;;;;;;;;;;;;;;11.23;52.69;96837.34;6296609;28;19920;-75
2023/05/12 11:08:45;;;;;;;;;;;;;;;11.11;53.73;96832.91;6278927;28;19920;-75
2023/05/12 11:11:49;;;;;;;;;;;;;;;11.17;54.18;96821.13;6296441;28;19920;-74
2023/05/12 11:14:50;;;;;;;;;;;;;;;11.40;54.66;96815.13;6277888;28;19920;-76
2023/05/12 11:17:54;;;;;;;;;;;;;;;11.49;53.51;96812.81;6295535;28;19920;-75
2023/05/12 11:20:55;;;;;;;;;;;;;;;11.52;53.87;96820.50;6295714;28;19923;-75
2023/05/12 11:23:59;;;;;;;;;;;;;;;11.52;54.08;96818.72;6296540;28;20018;-74
2023/05/12 11:27:03;;;;;;;;;;;;;;;11.56;54.72;96807.00;6296388;28;19927;-74
2023/05/12 11:30:04;;;;;;;;;;;;;;;11.63;54.71;96803.00;6295962;28;20309;-75
2023/05/12 11:33:07;;;;;;;;;;;;;;;11.53;54.71;96809.00;6277845;28;20070;-73
2023/05/12 11:36:11;;;;;;;;;;;;;;;11.34;55.92;96802.38;6277671;28;19921;-75
2023/05/12 11:39:23;;;;;;;;;;;;;;;11.22;56.10;96801.44;6277819;28;19920;-74
2023/05/12 11:42:29;;;;;;;;;;;;;;;11.16;56.32;96799.22;6294480;28;19930;-72
2023/05/12 11:45:33;;;;;;;;;;;;;;;11.13;57.73;96793.34;6294910;28;20290;-74
2023/05/12 11:48:40;;;;;;;;;;;;;;;11.04;57.45;96789.53;6295596;28;19928;-73
2023/05/12 11:51:43;;;;;;;;;;;;;;;10.86;57.84;96790.75;6295437;28;19920;-75
2023/05/12 11:54:59;;;;;;;;;;;;;;;10.68;57.50;96798.94;6294176;28;19926;-74
2023/05/12 11:58:01;;;;;;;;;;;;;;;10.50;57.96;96813.31;6295391;28;20011;-75
2023/05/12 12:01:11;;;;;;;;;;;;;;;10.36;59.88;96808.97;6294714;28;20305;-76
2023/05/12 12:04:16;;;;;;;;;;;;;;;10.34;60.10;96811.69;6295117;28;20287;-75
2023/05/12 12:07:32;;;;;;;;;;;;;;;10.34;60.02;96809.06;6294952;28;19916;-74
2023/05/12 12:10:38;;;;;;;;;;;;;;;10.43;60.34;96810.25;6276796;28;19920;-74
2023/05/12 12:13:46;;;;;;;;;;;;;;;10.50;60.62;96801.03;6277225;28;19947;-74
2023/05/12 12:16:49;;;;;;;;;;;;;;;10.57;60.66;96798.81;6277179;28;20395;-76
2023/05/12 12:19:51;;;;;;;;;;;;;;;10.56;61.39;96795.34;6294781;28;20018;-73
2023/05/12 12:22:54;;;;;;;;;;;;;;;10.49;61.60;96793.22;6294782;28;20300;-74
2023/05/12 12:25:57;;;;;;;;;;;;;;;10.47;60.94;96795.09;6295058;28;20405;-75
2023/05/12 12:29:00;;;;;;;;;;;;;;;10.46;60.90;96782.91;6276648;28;19920;-75
2023/05/12 12:32:04;;;;;;;;;;;;;;;10.41;61.79;96769.19;6294832;28;20316;-75
2023/05/12 12:35:06;;;;;;;;;;;;;;;10.36;61.16;96760.75;6259829;28;20370;-74
2023/05/12 12:38:11;;;;;;;;;;;;;;;10.32;60.85;96755.69;6260146;28;19927;-75
2023/05/12 12:41:22;;;;;;;;;;;;;;;10.26;61.86;96745.56;6293977;28;19943;-75
2023/05/12 12:44:30;;;;;;;;;;;;;;;10.22;62.52;96724.81;6277412;28;19927;-75
2023/05/12 12:47:33;;;;;;;;;;;;;;;10.09;63.52;96714.28;6276880;28;20014;-74
2023/05/12 12:50:37;;;;;;;;;;;;;;;9.82;63.93;96722.16;6294974;28;20266;-76
2023/05/12 12:53:42;;;;;;;;;;;;;;;9.69;64.63;96708.97;6295341;28;19968;-75
2023/05/12 12:56:46;;;;;;;;;;;;;;;9.61;65.20;96706.81;6276860;28;19927;-75
2023/05/12 12:59:56;;;;;;;;;;;;;;;9.54;65.94;96704.66;6295027;28;19924;-75
2023/05/12 13:03:00;;;;;;;;;;;;;;;9.44;65.69;96707.88;6296183;28;20069;-76
2023/05/12 13:06:04;;;;;;;;;;;;;;;9.41;65.84;96702.84;6300007;28;19920;-76
2023/05/12 13:09:09;;;;;;;;;;;;;;;9.36;66.81;96691.75;6299595;28;20030;-75
2023/05/12 13:12:12;;;;;;;;;;;;;;;9.38;66.67;96674.13;6299938;28;20161;-74
2023/05/12 13:15:17;;;;;;;;;;;;;;;9.37;67.61;96661.97;6299166;28;20032;-76
2023/05/12 13:18:21;;;;;;;;;;;;;;;9.31;67.67;96672.81;6281812;28;20309;-75
2023/05/12 13:21:24;;;;;;;;;;;;;;;9.34;67.95;96675.28;6299423;28;19927;-76
2023/05/12 13:24:27;;;;;;;;;;;;;;;9.30;68.13;96665.91;6281792;28;19920;-75
2023/05/12 13:27:31;;;;;;;;;;;;;;;9.24;68.30;96662.81;6298936;28;19938;-74
2023/05/12 13:30:38;;;;;;;;;;;;;;;9.20;68.44;96652.53;6281856;28;20023;-74
2023/05/12 13:33:42;;;;;;;;;;;;;;;9.22;68.39;96657.66;6280303;28;19963;-75
2023/05/12 13:36:45;;;;;;;;;;;;;;;9.23;68.81;96651.50;6298663;28;20011;-73
2023/05/12 13:39:48;;;;;;;;;;;;;;;9.27;69.59;96645.09;6298769;28;19930;-76
2023/05/12 13:42:51;;;;;;;;;;;;;;;9.30;69.99;96644.06;6298669;28;19923;-76
2023/05/12 13:45:53;;;;;;;;;;;;;;;9.31;70.20;96635.22;6298601;28;20023;-75
2023/05/12 13:48:58;;;;;;;;;;;;;;;9.30;70.40;96637.03;6298879;28;19999;-75
2023/05/12 13:52:27;;;;;;;;;;;;;;;9.32;70.56;96631.69;6279874;28;20308;-75
2023/05/12 13:55:28;;;;;;;;;;;;;;;9.41;70.82;96631.94;6296720;28;19924;-74
2023/05/12 13:58:32;;;;;;;;;;;;;;;9.65;70.70;96628.66;6298283;28;19920;-74
2023/05/12 14:01:35;;;;;;;;;;;;;;;9.71;70.41;96620.41;6280701;28;19927;-74
2023/05/12 14:04:39;;;;;;;;;;;;;;;9.73;70.99;96615.84;6279643;28;19927;-75
2023/05/12 14:07:43;;;;;;;;;;;;;;;9.70;71.28;96600.28;6297934;28;20460;-74
2023/05/12 14:10:46;;;;;;;;;;;;;;;9.64;71.68;96613.84;6298434;28;19920;-75
2023/05/12 14:13:48;;;;;;;;;;;;;;;9.54;72.05;96620.63;6297456;28;20321;-75
2023/05/12 14:16:54;;;;;;;;;;;;;;;9.55;71.82;96607.41;6297253;28;19921;-74
2023/05/12 14:19:57;;;;;;;;;;;;;;;9.59;71.67;96613.28;6297873;28;20072;-75
2023/05/12 14:23:01;;;;;;;;;;;;;;;9.62;71.66;96592.06;6297808;28;19917;-74
2023/05/12 14:26:05;;;;;;;;;;;;;;;9.65;71.59;96594.50;6297689;28;19920;-75
2023/05/12 14:29:08;;;;;;;;;;;;;;;9.62;71.42;96607.84;6279086;28;20364;-74
2023/05/12 14:32:12;;;;;;;;;;;;;;;9.61;71.63;96608.78;6279085;28;19920;-75
2023/05/12 14:35:18;;;;;;;;;;;;;;;9.65;71.84;96598.00;6279458;28;20347;-75
2023/05/12 14:38:21;;;;;;;;;;;;;;;9.60;71.64;96599.22;6297219;28;19932;-75
2023/05/12 14:41:25;;;;;;;;;;;;;;;9.53;71.63;96597.94;6279048;28;19920;-75
2023/05/12 14:44:27;;;;;;;;;;;;;;;9.50;71.64;96598.13;6279281;28;20011;-75
2023/05/12 14:47:31;;;;;;;;;;;;;;;9.50;71.34;96614.72;6296827;28;19920;-75
2023/05/12 14:50:36;;;;;;;;;;;;;;;9.53;71.51;96624.19;6297519;28;19926;-77
2023/05/12 14:53:41;;;;;;;;;;;;;;;9.59;71.46;96605.41;6297043;28;19924;-75
2023/05/12 14:56:44;;;;;;;;;;;;;;;9.71;71.85;96583.59;6279198;28;19920;-75
2023/05/12 14:59:47;;;;;;;;;;;;;;;9.62;71.08;96587.69;6279148;28;19920;-75
2023/05/12 15:02:49;;;;;;;;;;;;;;;9.59;71.69;96590.47;6296785;28;20005;-75
2023/05/12 15:05:52;;;;;;;;;;;;;;;9.56;71.50;96593.31;6261841;28;19926;-76
2023/05/12 15:08:55;;;;;;;;;;;;;;;9.60;72.09;96583.47;6296448;28;20189;-75
2023/05/12 15:11:58;;;;;;;;;;;;;;;9.55;72.08;96585.56;6296707;28;19931;-75
2023/05/12 15:15:07;;;;;;;;;;;;;;;9.48;72.17;96592.97;6296151;28;19920;-75
2023/05/12 15:18:09;;;;;;;;;;;;;;;9.40;72.28;96588.22;6278440;28;20007;-76
2023/05/12 15:21:12;;;;;;;;;;;;;;;9.42;72.25;96586.31;6278449;28;20015;-75
2023/05/12 15:24:16;;;;;;;;;;;;;;;9.46;72.02;96581.75;6296296;28;20014;-78
2023/05/12 15:27:19;;;;;;;;;;;;;;;9.47;72.00;96585.22;6277539;28;20408;-77
2023/05/12 15:30:22;;;;;;;;;;;;;;;9.48;72.00;96579.84;6296017;28;20309;-77
2023/05/12 15:33:25;;;;;;;;;;;;;;;9.49;71.71;96585.97;6296223;28;19919;-76
2023/05/12 15:36:29;;;;;;;;;;;;;;;9.43;71.81;96582.78;6295802;28;20309;-76
2023/05/12 15:39:32;;;;;;;;;;;;;;;9.42;71.60;96575.81;6278383;28;20453;-76
2023/05/12 15:42:35;;;;;;;;;;;;;;;9.40;71.81;96567.22;6295845;28;20433;-76
2023/05/12 15:45:39;;;;;;;;;;;;;;;9.42;71.83;96560.06;6295737;28;19928;-77
2023/05/12 15:48:47;;;;;;;;;;;;;;;9.43;71.92;96559.16;6278718;28;19947;-74
2023/05/12 15:51:50;;;;;;;;;;;;;;;9.39;71.87;96560.28;6295714;28;20015;-76
2023/05/12 15:54:53;;;;;;;;;;;;;;;9.37;72.56;96567.44;6295423;28;20034;-77
2023/05/12 15:57:57;;;;;;;;;;;;;;;9.39;71.82;96572.56;6295517;28;19920;-76
2023/05/12 16:01:00;;;;;;;;;;;;;;;9.33;71.73;96580.84;6295388;28;19955;-77